sensor_id;sensor_type;location;lat;lon;timestamp;P1;durP1;ratioP1;P2;durP2;ratioP2
33413;SDS011;60055;41.884;12.534;2024-01-11T00:02:21;28.48;;;17.63;;
33413;SDS011;60055;41.884;12.534;2024-01-11T00:04:47;27.60;;;16.58;;
33413;SDS011;60055;41.884;12.534;2024-01-11T00:07:12;28.48;;;17.90;;
33413;SDS011;60055;41.884;12.534;2024-01-11T00:09:43;32.08;;;17.85;;
33413;SDS011;60055;41.884;12.534;2024-01-11T00:12:09;31.60;;;18.83;;
33413;SDS011;60055;41.884;12.534;2024-01-11T00:14:35;28.73;;;16.88;;
33413;SDS011;60055;41.884;12.534;2024-01-11T00:17:00;29.98;;;17.20;;
33413;SDS011;60055;41.884;12.534;2024-01-11T00:19:26;27.67;;;17.30;;
33413;SDS011;60055;41.884;12.534;2024-01-11T00:21:52;29.35;;;17.52;;
33413;SDS011;60055;41.884;12.534;2024-01-11T00:24:17;26.95;;;16.73;;
33413;SDS011;60055;41.884;12.534;2024-01-11T00:26:43;28.88;;;16.98;;
33413;SDS011;60055;41.884;12.534;2024-01-11T00:29:08;27.85;;;16.88;;
33413;SDS011;60055;41.884;12.534;2024-01-11T00:31:34;29.58;;;17.17;;
33413;SDS011;60055;41.884;12.534;2024-01-11T00:34:00;27.70;;;16.52;;
33413;SDS011;60055;41.884;12.534;2024-01-11T00:36:26;27.40;;;16.45;;
33413;SDS011;60055;41.884;12.534;2024-01-11T00:38:51;28.88;;;16.65;;
33413;SDS011;60055;41.884;12.534;2024-01-11T00:41:17;26.52;;;16.90;;
33413;SDS011;60055;41.884;12.534;2024-01-11T00:43:42;26.10;;;15.75;;
33413;SDS011;60055;41.884;12.534;2024-01-11T00:46:07;25.45;;;15.70;;
33413;SDS011;60055;41.884;12.534;2024-01-11T00:48:33;28.13;;;16.88;;
33413;SDS011;60055;41.884;12.534;2024-01-11T00:50:58;28.75;;;15.82;;
33413;SDS011;60055;41.884;12.534;2024-01-11T00:53:24;24.52;;;15.43;;
33413;SDS011;60055;41.884;12.534;2024-01-11T00:55:50;27.08;;;15.85;;
33413;SDS011;60055;41.884;12.534;2024-01-11T00:58:16;27.35;;;15.38;;
33413;SDS011;60055;41.884;12.534;2024-01-11T01:00:41;25.20;;;15.77;;
33413;SDS011;60055;41.884;12.534;2024-01-11T01:03:07;23.83;;;14.80;;
33413;SDS011;60055;41.884;12.534;2024-01-11T01:05:32;25.83;;;15.05;;
33413;SDS011;60055;41.884;12.534;2024-01-11T01:07:57;24.02;;;14.73;;
33413;SDS011;60055;41.884;12.534;2024-01-11T01:10:23;24.35;;;15.02;;
33413;SDS011;60055;41.884;12.534;2024-01-11T01:12:48;25.30;;;14.98;;
33413;SDS011;60055;41.884;12.534;2024-01-11T01:15:14;24.17;;;14.38;;
33413;SDS011;60055;41.884;12.534;2024-01-11T01:17:39;24.58;;;14.93;;
33413;SDS011;60055;41.884;12.534;2024-01-11T01:20:05;22.63;;;14.35;;
33413;SDS011;60055;41.884;12.534;2024-01-11T01:22:31;22.48;;;14.23;;
33413;SDS011;60055;41.884;12.534;2024-01-11T01:24:56;23.60;;;15.13;;
33413;SDS011;60055;41.884;12.534;2024-01-11T01:27:22;25.30;;;15.30;;
33413;SDS011;60055;41.884;12.534;2024-01-11T01:29:47;22.45;;;14.85;;
33413;SDS011;60055;41.884;12.534;2024-01-11T01:32:13;24.13;;;15.90;;
33413;SDS011;60055;41.884;12.534;2024-01-11T01:34:38;26.45;;;15.85;;
33413;SDS011;60055;41.884;12.534;2024-01-11T01:37:03;26.90;;;16.65;;
33413;SDS011;60055;41.884;12.534;2024-01-11T01:39:29;25.17;;;15.68;;
33413;SDS011;60055;41.884;12.534;2024-01-11T01:41:54;29.02;;;16.83;;
33413;SDS011;60055;41.884;12.534;2024-01-11T01:44:20;25.52;;;15.85;;
33413;SDS011;60055;41.884;12.534;2024-01-11T01:46:45;26.42;;;15.70;;
33413;SDS011;60055;41.884;12.534;2024-01-11T01:49:12;24.88;;;16.13;;
33413;SDS011;60055;41.884;12.534;2024-01-11T01:51:37;22.85;;;15.00;;
33413;SDS011;60055;41.884;12.534;2024-01-11T01:54:03;23.58;;;15.05;;
33413;SDS011;60055;41.884;12.534;2024-01-11T01:56:29;25.55;;;15.25;;
33413;SDS011;60055;41.884;12.534;2024-01-11T01:58:55;22.95;;;14.82;;
33413;SDS011;60055;41.884;12.534;2024-01-11T02:01:20;21.73;;;14.20;;
33413;SDS011;60055;41.884;12.534;2024-01-11T02:03:49;22.65;;;14.13;;
33413;SDS011;60055;41.884;12.534;2024-01-11T02:06:16;24.08;;;14.70;;
33413;SDS011;60055;41.884;12.534;2024-01-11T02:08:42;22.10;;;13.25;;
33413;SDS011;60055;41.884;12.534;2024-01-11T02:11:08;20.55;;;13.77;;
33413;SDS011;60055;41.884;12.534;2024-01-11T02:13:35;20.45;;;13.48;;
33413;SDS011;60055;41.884;12.534;2024-01-11T02:16:01;19.67;;;13.25;;
33413;SDS011;60055;41.884;12.534;2024-01-11T02:18:26;22.73;;;14.07;;
33413;SDS011;60055;41.884;12.534;2024-01-11T02:20:52;24.48;;;13.48;;
33413;SDS011;60055;41.884;12.534;2024-01-11T02:23:18;21.65;;;13.20;;
33413;SDS011;60055;41.884;12.534;2024-01-11T02:25:46;22.92;;;13.55;;
33413;SDS011;60055;41.884;12.534;2024-01-11T02:28:11;21.45;;;13.68;;
33413;SDS011;60055;41.884;12.534;2024-01-11T02:30:37;21.40;;;12.90;;
33413;SDS011;60055;41.884;12.534;2024-01-11T02:33:03;22.85;;;13.02;;
33413;SDS011;60055;41.884;12.534;2024-01-11T02:35:30;21.00;;;12.70;;
33413;SDS011;60055;41.884;12.534;2024-01-11T02:37:57;19.27;;;12.40;;
33413;SDS011;60055;41.884;12.534;2024-01-11T02:40:24;19.98;;;12.77;;
33413;SDS011;60055;41.884;12.534;2024-01-11T02:42:51;20.45;;;11.93;;
33413;SDS011;60055;41.884;12.534;2024-01-11T02:45:16;17.90;;;11.50;;
33413;SDS011;60055;41.884;12.534;2024-01-11T02:47:43;16.30;;;11.55;;
33413;SDS011;60055;41.884;12.534;2024-01-11T02:50:09;23.15;;;11.98;;
33413;SDS011;60055;41.884;12.534;2024-01-11T02:52:36;17.95;;;11.65;;
33413;SDS011;60055;41.884;12.534;2024-01-11T02:55:02;19.83;;;11.95;;
33413;SDS011;60055;41.884;12.534;2024-01-11T02:57:28;19.40;;;11.45;;
33413;SDS011;60055;41.884;12.534;2024-01-11T02:59:53;18.83;;;11.57;;
33413;SDS011;60055;41.884;12.534;2024-01-11T03:02:19;21.00;;;12.48;;
33413;SDS011;60055;41.884;12.534;2024-01-11T03:04:44;18.42;;;12.18;;
33413;SDS011;60055;41.884;12.534;2024-01-11T03:07:10;19.48;;;11.80;;
33413;SDS011;60055;41.884;12.534;2024-01-11T03:09:36;18.00;;;10.85;;
33413;SDS011;60055;41.884;12.534;2024-01-11T03:12:01;21.30;;;11.40;;
33413;SDS011;60055;41.884;12.534;2024-01-11T03:14:26;18.00;;;11.20;;
33413;SDS011;60055;41.884;12.534;2024-01-11T03:16:52;16.67;;;10.95;;
33413;SDS011;60055;41.884;12.534;2024-01-11T03:19:17;22.75;;;12.32;;
33413;SDS011;60055;41.884;12.534;2024-01-11T03:21:43;18.00;;;11.05;;
33413;SDS011;60055;41.884;12.534;2024-01-11T03:24:09;19.45;;;11.60;;
33413;SDS011;60055;41.884;12.534;2024-01-11T03:26:34;18.83;;;12.02;;
33413;SDS011;60055;41.884;12.534;2024-01-11T03:28:59;16.25;;;10.32;;
33413;SDS011;60055;41.884;12.534;2024-01-11T03:31:25;21.77;;;11.98;;
33413;SDS011;60055;41.884;12.534;2024-01-11T03:33:50;18.40;;;11.63;;
33413;SDS011;60055;41.884;12.534;2024-01-11T03:36:16;18.63;;;10.77;;
33413;SDS011;60055;41.884;12.534;2024-01-11T03:38:41;17.73;;;11.32;;
33413;SDS011;60055;41.884;12.534;2024-01-11T03:41:07;16.90;;;11.07;;
33413;SDS011;60055;41.884;12.534;2024-01-11T03:43:34;17.13;;;10.60;;
33413;SDS011;60055;41.884;12.534;2024-01-11T03:46:00;18.58;;;10.70;;
33413;SDS011;60055;41.884;12.534;2024-01-11T03:48:26;16.55;;;11.15;;
33413;SDS011;60055;41.884;12.534;2024-01-11T03:50:51;20.08;;;12.45;;
33413;SDS011;60055;41.884;12.534;2024-01-11T04:05:26;18.35;;;11.00;;
33413;SDS011;60055;41.884;12.534;2024-01-11T04:07:52;17.33;;;12.07;;
33413;SDS011;60055;41.884;12.534;2024-01-11T04:10:17;18.55;;;11.75;;
33413;SDS011;60055;41.884;12.534;2024-01-11T04:12:43;22.35;;;12.65;;
33413;SDS011;60055;41.884;12.534;2024-01-11T04:15:08;21.38;;;12.65;;
33413;SDS011;60055;41.884;12.534;2024-01-11T04:17:36;21.48;;;13.50;;
33413;SDS011;60055;41.884;12.534;2024-01-11T04:20:03;19.65;;;12.52;;
33413;SDS011;60055;41.884;12.534;2024-01-11T04:22:29;21.30;;;13.52;;
33413;SDS011;60055;41.884;12.534;2024-01-11T04:24:55;21.92;;;13.13;;
33413;SDS011;60055;41.884;12.534;2024-01-11T04:27:20;18.23;;;12.82;;
33413;SDS011;60055;41.884;12.534;2024-01-11T04:29:46;21.50;;;13.38;;
33413;SDS011;60055;41.884;12.534;2024-01-11T04:32:11;20.90;;;13.50;;
33413;SDS011;60055;41.884;12.534;2024-01-11T04:34:36;21.85;;;14.57;;
33413;SDS011;60055;41.884;12.534;2024-01-11T04:37:02;20.52;;;14.35;;
33413;SDS011;60055;41.884;12.534;2024-01-11T04:39:27;21.13;;;14.18;;
33413;SDS011;60055;41.884;12.534;2024-01-11T04:41:53;25.10;;;14.43;;
33413;SDS011;60055;41.884;12.534;2024-01-11T04:44:18;23.40;;;14.80;;
33413;SDS011;60055;41.884;12.534;2024-01-11T04:46:44;26.02;;;14.57;;
33413;SDS011;60055;41.884;12.534;2024-01-11T04:49:09;22.38;;;14.45;;
33413;SDS011;60055;41.884;12.534;2024-01-11T04:51:35;20.38;;;13.80;;
33413;SDS011;60055;41.884;12.534;2024-01-11T04:54:00;20.77;;;13.95;;
33413;SDS011;60055;41.884;12.534;2024-01-11T04:56:26;21.60;;;12.63;;
33413;SDS011;60055;41.884;12.534;2024-01-11T04:58:51;17.95;;;12.23;;
33413;SDS011;60055;41.884;12.534;2024-01-11T05:01:17;19.05;;;12.60;;
33413;SDS011;60055;41.884;12.534;2024-01-11T05:03:43;19.02;;;11.38;;
33413;SDS011;60055;41.884;12.534;2024-01-11T05:06:17;20.33;;;11.27;;
33413;SDS011;60055;41.884;12.534;2024-01-11T05:08:47;19.92;;;11.80;;
33413;SDS011;60055;41.884;12.534;2024-01-11T05:11:20;16.10;;;10.82;;
33413;SDS011;60055;41.884;12.534;2024-01-11T05:13:51;18.73;;;11.80;;
33413;SDS011;60055;41.884;12.534;2024-01-11T05:16:24;18.98;;;11.70;;
33413;SDS011;60055;41.884;12.534;2024-01-11T05:18:51;16.73;;;10.90;;
33413;SDS011;60055;41.884;12.534;2024-01-11T05:21:18;18.00;;;10.48;;
33413;SDS011;60055;41.884;12.534;2024-01-11T05:23:44;14.32;;;10.18;;
33413;SDS011;60055;41.884;12.534;2024-01-11T05:26:10;15.40;;;10.00;;
33413;SDS011;60055;41.884;12.534;2024-01-11T05:28:36;16.52;;;10.30;;
33413;SDS011;60055;41.884;12.534;2024-01-11T05:31:04;16.58;;;10.10;;
33413;SDS011;60055;41.884;12.534;2024-01-11T05:33:31;16.30;;;9.82;;
33413;SDS011;60055;41.884;12.534;2024-01-11T05:35:56;16.83;;;9.45;;
33413;SDS011;60055;41.884;12.534;2024-01-11T05:38:22;15.23;;;9.93;;
33413;SDS011;60055;41.884;12.534;2024-01-11T05:40:47;14.60;;;9.93;;
33413;SDS011;60055;41.884;12.534;2024-01-11T05:43:12;14.73;;;9.18;;
33413;SDS011;60055;41.884;12.534;2024-01-11T05:45:38;15.57;;;9.15;;
33413;SDS011;60055;41.884;12.534;2024-01-11T05:48:03;16.92;;;9.10;;
33413;SDS011;60055;41.884;12.534;2024-01-11T05:50:30;14.57;;;8.73;;
33413;SDS011;60055;41.884;12.534;2024-01-11T05:52:56;16.63;;;9.85;;
33413;SDS011;60055;41.884;12.534;2024-01-11T05:55:22;16.25;;;9.15;;
33413;SDS011;60055;41.884;12.534;2024-01-11T05:57:47;13.30;;;9.13;;
33413;SDS011;60055;41.884;12.534;2024-01-11T06:00:13;11.95;;;8.63;;
33413;SDS011;60055;41.884;12.534;2024-01-11T06:02:39;15.07;;;9.13;;
33413;SDS011;60055;41.884;12.534;2024-01-11T06:05:07;15.88;;;9.15;;
33413;SDS011;60055;41.884;12.534;2024-01-11T06:07:33;16.48;;;9.45;;
33413;SDS011;60055;41.884;12.534;2024-01-11T06:09:59;15.55;;;9.65;;
33413;SDS011;60055;41.884;12.534;2024-01-11T06:12:26;15.40;;;8.57;;
33413;SDS011;60055;41.884;12.534;2024-01-11T06:14:52;13.48;;;8.80;;
33413;SDS011;60055;41.884;12.534;2024-01-11T06:17:18;14.15;;;8.70;;
33413;SDS011;60055;41.884;12.534;2024-01-11T06:19:43;13.45;;;8.48;;
33413;SDS011;60055;41.884;12.534;2024-01-11T06:22:09;14.65;;;9.18;;
33413;SDS011;60055;41.884;12.534;2024-01-11T06:24:34;14.05;;;8.60;;
33413;SDS011;60055;41.884;12.534;2024-01-11T06:26:59;12.25;;;7.80;;
33413;SDS011;60055;41.884;12.534;2024-01-11T06:29:25;15.10;;;7.95;;
33413;SDS011;60055;41.884;12.534;2024-01-11T06:31:50;14.10;;;8.70;;
33413;SDS011;60055;41.884;12.534;2024-01-11T06:34:16;12.77;;;8.18;;
33413;SDS011;60055;41.884;12.534;2024-01-11T06:36:41;13.60;;;8.35;;
33413;SDS011;60055;41.884;12.534;2024-01-11T06:39:06;14.10;;;8.45;;
33413;SDS011;60055;41.884;12.534;2024-01-11T06:41:33;13.27;;;8.43;;
33413;SDS011;60055;41.884;12.534;2024-01-11T06:43:59;15.55;;;8.20;;
33413;SDS011;60055;41.884;12.534;2024-01-11T06:46:24;14.57;;;8.52;;
33413;SDS011;60055;41.884;12.534;2024-01-11T06:48:50;12.80;;;8.35;;
33413;SDS011;60055;41.884;12.534;2024-01-11T06:51:15;13.32;;;8.77;;
33413;SDS011;60055;41.884;12.534;2024-01-11T06:53:41;15.32;;;9.27;;
33413;SDS011;60055;41.884;12.534;2024-01-11T06:56:16;14.23;;;9.05;;
33413;SDS011;60055;41.884;12.534;2024-01-11T06:58:43;12.95;;;8.68;;
33413;SDS011;60055;41.884;12.534;2024-01-11T07:01:09;14.07;;;8.45;;
33413;SDS011;60055;41.884;12.534;2024-01-11T07:03:35;13.02;;;8.77;;
33413;SDS011;60055;41.884;12.534;2024-01-11T07:06:01;13.75;;;8.13;;
33413;SDS011;60055;41.884;12.534;2024-01-11T07:08:28;12.10;;;8.10;;
33413;SDS011;60055;41.884;12.534;2024-01-11T07:10:53;13.85;;;8.07;;
33413;SDS011;60055;41.884;12.534;2024-01-11T07:13:19;14.02;;;8.15;;
33413;SDS011;60055;41.884;12.534;2024-01-11T07:15:45;19.17;;;7.85;;
33413;SDS011;60055;41.884;12.534;2024-01-11T07:18:10;13.40;;;8.30;;
33413;SDS011;60055;41.884;12.534;2024-01-11T07:20:36;14.35;;;7.55;;
33413;SDS011;60055;41.884;12.534;2024-01-11T07:23:02;16.33;;;9.15;;
33413;SDS011;60055;41.884;12.534;2024-01-11T07:25:27;14.25;;;8.80;;
33413;SDS011;60055;41.884;12.534;2024-01-11T07:27:53;13.50;;;8.23;;
33413;SDS011;60055;41.884;12.534;2024-01-11T07:30:18;16.00;;;9.15;;
33413;SDS011;60055;41.884;12.534;2024-01-11T07:32:44;14.77;;;8.52;;
33413;SDS011;60055;41.884;12.534;2024-01-11T07:35:09;17.27;;;9.20;;
33413;SDS011;60055;41.884;12.534;2024-01-11T07:37:36;13.48;;;8.73;;
33413;SDS011;60055;41.884;12.534;2024-01-11T07:40:02;13.25;;;8.02;;
33413;SDS011;60055;41.884;12.534;2024-01-11T07:42:28;14.82;;;8.40;;
33413;SDS011;60055;41.884;12.534;2024-01-11T07:44:54;12.80;;;8.02;;
33413;SDS011;60055;41.884;12.534;2024-01-11T07:47:20;16.52;;;8.18;;
33413;SDS011;60055;41.884;12.534;2024-01-11T07:49:45;14.93;;;8.55;;
33413;SDS011;60055;41.884;12.534;2024-01-11T07:52:10;12.75;;;7.13;;
33413;SDS011;60055;41.884;12.534;2024-01-11T07:54:36;14.15;;;7.95;;
33413;SDS011;60055;41.884;12.534;2024-01-11T07:57:01;13.38;;;8.13;;
33413;SDS011;60055;41.884;12.534;2024-01-11T07:59:28;13.23;;;7.78;;
33413;SDS011;60055;41.884;12.534;2024-01-11T08:01:57;16.15;;;7.63;;
33413;SDS011;60055;41.884;12.534;2024-01-11T08:04:23;19.27;;;7.35;;
33413;SDS011;60055;41.884;12.534;2024-01-11T08:06:48;11.95;;;7.28;;
33413;SDS011;60055;41.884;12.534;2024-01-11T08:09:13;13.82;;;7.88;;
33413;SDS011;60055;41.884;12.534;2024-01-11T08:11:39;12.63;;;7.22;;
33413;SDS011;60055;41.884;12.534;2024-01-11T08:14:06;11.18;;;7.18;;
33413;SDS011;60055;41.884;12.534;2024-01-11T08:16:32;12.25;;;7.15;;
33413;SDS011;60055;41.884;12.534;2024-01-11T08:18:57;11.85;;;7.07;;
33413;SDS011;60055;41.884;12.534;2024-01-11T08:21:23;11.93;;;6.28;;
33413;SDS011;60055;41.884;12.534;2024-01-11T08:23:49;11.43;;;6.10;;
33413;SDS011;60055;41.884;12.534;2024-01-11T08:26:15;11.70;;;5.70;;
33413;SDS011;60055;41.884;12.534;2024-01-11T08:28:41;10.70;;;5.82;;
33413;SDS011;60055;41.884;12.534;2024-01-11T08:31:07;11.30;;;5.95;;
33413;SDS011;60055;41.884;12.534;2024-01-11T08:33:32;11.07;;;5.63;;
33413;SDS011;60055;41.884;12.534;2024-01-11T08:35:58;8.65;;;5.22;;
33413;SDS011;60055;41.884;12.534;2024-01-11T08:38:23;8.38;;;5.40;;
33413;SDS011;60055;41.884;12.534;2024-01-11T08:40:49;9.70;;;5.05;;
33413;SDS011;60055;41.884;12.534;2024-01-11T08:43:15;10.43;;;5.32;;
33413;SDS011;60055;41.884;12.534;2024-01-11T08:45:40;8.55;;;5.30;;
33413;SDS011;60055;41.884;12.534;2024-01-11T08:48:06;9.80;;;5.65;;
33413;SDS011;60055;41.884;12.534;2024-01-11T08:50:31;10.23;;;4.70;;
33413;SDS011;60055;41.884;12.534;2024-01-11T08:52:58;9.75;;;5.22;;
33413;SDS011;60055;41.884;12.534;2024-01-11T08:55:23;10.65;;;5.03;;
33413;SDS011;60055;41.884;12.534;2024-01-11T08:57:48;8.38;;;5.35;;
33413;SDS011;60055;41.884;12.534;2024-01-11T09:00:14;10.43;;;4.85;;
33413;SDS011;60055;41.884;12.534;2024-01-11T09:02:43;8.98;;;5.57;;
33413;SDS011;60055;41.884;12.534;2024-01-11T09:05:09;8.30;;;5.60;;
33413;SDS011;60055;41.884;12.534;2024-01-11T09:07:34;7.75;;;4.78;;
33413;SDS011;60055;41.884;12.534;2024-01-11T09:10:00;9.27;;;4.68;;
33413;SDS011;60055;41.884;12.534;2024-01-11T09:12:25;8.98;;;5.70;;
33413;SDS011;60055;41.884;12.534;2024-01-11T09:14:50;9.95;;;5.05;;
33413;SDS011;60055;41.884;12.534;2024-01-11T09:17:16;9.13;;;5.22;;
33413;SDS011;60055;41.884;12.534;2024-01-11T09:19:41;12.13;;;5.68;;
33413;SDS011;60055;41.884;12.534;2024-01-11T09:22:07;9.75;;;5.47;;
33413;SDS011;60055;41.884;12.534;2024-01-11T09:24:35;7.40;;;4.47;;
33413;SDS011;60055;41.884;12.534;2024-01-11T09:27:01;7.05;;;4.53;;
33413;SDS011;60055;41.884;12.534;2024-01-11T09:29:26;6.90;;;4.93;;
33413;SDS011;60055;41.884;12.534;2024-01-11T09:31:52;10.95;;;4.63;;
33413;SDS011;60055;41.884;12.534;2024-01-11T09:34:18;6.97;;;4.60;;
33413;SDS011;60055;41.884;12.534;2024-01-11T09:36:44;7.60;;;4.90;;
33413;SDS011;60055;41.884;12.534;2024-01-11T09:39:10;8.45;;;5.00;;
33413;SDS011;60055;41.884;12.534;2024-01-11T09:41:38;7.63;;;4.72;;
33413;SDS011;60055;41.884;12.534;2024-01-11T09:44:10;10.85;;;5.25;;
33413;SDS011;60055;41.884;12.534;2024-01-11T09:46:36;9.50;;;5.25;;
33413;SDS011;60055;41.884;12.534;2024-01-11T09:49:02;8.32;;;4.68;;
33413;SDS011;60055;41.884;12.534;2024-01-11T09:51:29;8.80;;;4.60;;
33413;SDS011;60055;41.884;12.534;2024-01-11T09:53:55;9.73;;;4.57;;
33413;SDS011;60055;41.884;12.534;2024-01-11T09:56:21;10.18;;;5.05;;
33413;SDS011;60055;41.884;12.534;2024-01-11T09:58:49;10.00;;;4.82;;
33413;SDS011;60055;41.884;12.534;2024-01-11T10:01:15;42.05;;;7.68;;
33413;SDS011;60055;41.884;12.534;2024-01-11T10:03:42;17.27;;;5.82;;
33413;SDS011;60055;41.884;12.534;2024-01-11T10:06:08;8.05;;;4.75;;
33413;SDS011;60055;41.884;12.534;2024-01-11T10:08:35;10.75;;;4.97;;
33413;SDS011;60055;41.884;12.534;2024-01-11T10:11:01;13.75;;;5.47;;
33413;SDS011;60055;41.884;12.534;2024-01-11T10:13:28;17.08;;;5.53;;
33413;SDS011;60055;41.884;12.534;2024-01-11T10:16:10;8.07;;;4.97;;
33413;SDS011;60055;41.884;12.534;2024-01-11T10:18:40;10.05;;;5.18;;
33413;SDS011;60055;41.884;12.534;2024-01-11T10:21:06;11.80;;;5.05;;
33413;SDS011;60055;41.884;12.534;2024-01-11T10:23:38;8.63;;;5.00;;
33413;SDS011;60055;41.884;12.534;2024-01-11T10:26:04;7.55;;;4.60;;
33413;SDS011;60055;41.884;12.534;2024-01-11T10:28:29;9.07;;;4.65;;
33413;SDS011;60055;41.884;12.534;2024-01-11T10:30:56;10.63;;;4.57;;
33413;SDS011;60055;41.884;12.534;2024-01-11T10:33:22;9.05;;;4.85;;
33413;SDS011;60055;41.884;12.534;2024-01-11T10:35:48;8.35;;;4.47;;
33413;SDS011;60055;41.884;12.534;2024-01-11T10:38:14;10.35;;;4.45;;
33413;SDS011;60055;41.884;12.534;2024-01-11T10:40:41;6.28;;;4.00;;
33413;SDS011;60055;41.884;12.534;2024-01-11T10:43:10;8.05;;;4.20;;
33413;SDS011;60055;41.884;12.534;2024-01-11T10:45:36;6.28;;;4.15;;
33413;SDS011;60055;41.884;12.534;2024-01-11T10:48:06;6.93;;;4.15;;
33413;SDS011;60055;41.884;12.534;2024-01-11T10:50:37;8.15;;;4.60;;
33413;SDS011;60055;41.884;12.534;2024-01-11T10:55:57;7.10;;;4.32;;
33413;SDS011;60055;41.884;12.534;2024-01-11T10:58:24;7.00;;;4.15;;
33413;SDS011;60055;41.884;12.534;2024-01-11T11:00:51;8.20;;;4.50;;
33413;SDS011;60055;41.884;12.534;2024-01-11T11:03:22;6.90;;;4.53;;
33413;SDS011;60055;41.884;12.534;2024-01-11T11:05:49;6.57;;;4.40;;
33413;SDS011;60055;41.884;12.534;2024-01-11T11:08:17;8.75;;;5.10;;
33413;SDS011;60055;41.884;12.534;2024-01-11T11:10:44;7.65;;;4.60;;
33413;SDS011;60055;41.884;12.534;2024-01-11T11:13:10;127.85;;;37.70;;
33413;SDS011;60055;41.884;12.534;2024-01-11T11:15:39;64.45;;;14.63;;
33413;SDS011;60055;41.884;12.534;2024-01-11T11:18:11;35.53;;;10.93;;
33413;SDS011;60055;41.884;12.534;2024-01-11T11:20:38;98.25;;;22.25;;
33413;SDS011;60055;41.884;12.534;2024-01-11T11:23:07;8.02;;;5.07;;
33413;SDS011;60055;41.884;12.534;2024-01-11T11:25:34;56.45;;;15.27;;
33413;SDS011;60055;41.884;12.534;2024-01-11T11:28:00;16.15;;;5.25;;
33413;SDS011;60055;41.884;12.534;2024-01-11T11:30:37;66.72;;;14.93;;
33413;SDS011;60055;41.884;12.534;2024-01-11T11:33:19;26.90;;;9.10;;
33413;SDS011;60055;41.884;12.534;2024-01-11T11:35:46;18.58;;;7.00;;
33413;SDS011;60055;41.884;12.534;2024-01-11T11:38:18;30.60;;;9.43;;
33413;SDS011;60055;41.884;12.534;2024-01-11T11:43:13;9.85;;;5.43;;
33413;SDS011;60055;41.884;12.534;2024-01-11T11:45:41;14.38;;;5.10;;
33413;SDS011;60055;41.884;12.534;2024-01-11T11:51:27;8.80;;;5.40;;
33413;SDS011;60055;41.884;12.534;2024-01-11T11:53:49;10.27;;;5.50;;
33413;SDS011;60055;41.884;12.534;2024-01-11T11:56:17;9.95;;;4.95;;
33413;SDS011;60055;41.884;12.534;2024-01-11T11:58:44;12.80;;;6.10;;
33413;SDS011;60055;41.884;12.534;2024-01-11T12:01:13;7.78;;;4.90;;
33413;SDS011;60055;41.884;12.534;2024-01-11T12:03:43;9.10;;;5.10;;
33413;SDS011;60055;41.884;12.534;2024-01-11T12:06:14;9.25;;;5.68;;
33413;SDS011;60055;41.884;12.534;2024-01-11T12:08:44;8.10;;;5.38;;
33413;SDS011;60055;41.884;12.534;2024-01-11T12:11:12;8.98;;;4.78;;
33413;SDS011;60055;41.884;12.534;2024-01-11T12:13:39;10.02;;;4.72;;
33413;SDS011;60055;41.884;12.534;2024-01-11T12:16:05;7.65;;;4.53;;
33413;SDS011;60055;41.884;12.534;2024-01-11T12:18:31;8.90;;;5.00;;
33413;SDS011;60055;41.884;12.534;2024-01-11T12:20:56;8.93;;;5.18;;
33413;SDS011;60055;41.884;12.534;2024-01-11T12:23:22;9.20;;;5.45;;
33413;SDS011;60055;41.884;12.534;2024-01-11T12:25:48;8.52;;;4.75;;
33413;SDS011;60055;41.884;12.534;2024-01-11T12:28:13;9.20;;;4.80;;
33413;SDS011;60055;41.884;12.534;2024-01-11T12:30:39;8.55;;;5.07;;
33413;SDS011;60055;41.884;12.534;2024-01-11T12:33:05;8.30;;;5.40;;
33413;SDS011;60055;41.884;12.534;2024-01-11T12:35:30;8.25;;;5.47;;
33413;SDS011;60055;41.884;12.534;2024-01-11T12:38:00;7.93;;;5.25;;
33413;SDS011;60055;41.884;12.534;2024-01-11T12:40:33;10.50;;;5.68;;
33413;SDS011;60055;41.884;12.534;2024-01-11T12:43:00;10.10;;;5.30;;
33413;SDS011;60055;41.884;12.534;2024-01-11T12:45:26;9.55;;;6.25;;
33413;SDS011;60055;41.884;12.534;2024-01-11T12:47:52;10.43;;;5.80;;
33413;SDS011;60055;41.884;12.534;2024-01-11T12:50:19;9.82;;;5.57;;
33413;SDS011;60055;41.884;12.534;2024-01-11T12:52:46;8.85;;;5.53;;
33413;SDS011;60055;41.884;12.534;2024-01-11T12:55:18;9.20;;;5.05;;
33413;SDS011;60055;41.884;12.534;2024-01-11T12:57:44;7.37;;;5.33;;
33413;SDS011;60055;41.884;12.534;2024-01-11T13:00:10;9.70;;;5.57;;
33413;SDS011;60055;41.884;12.534;2024-01-11T13:02:36;12.50;;;5.90;;
33413;SDS011;60055;41.884;12.534;2024-01-11T13:05:02;13.40;;;5.75;;
33413;SDS011;60055;41.884;12.534;2024-01-11T13:07:30;8.25;;;5.10;;
33413;SDS011;60055;41.884;12.534;2024-01-11T13:09:55;9.45;;;5.60;;
33413;SDS011;60055;41.884;12.534;2024-01-11T13:12:21;12.50;;;5.88;;
33413;SDS011;60055;41.884;12.534;2024-01-11T13:14:47;8.82;;;5.53;;
33413;SDS011;60055;41.884;12.534;2024-01-11T13:17:12;9.32;;;5.72;;
33413;SDS011;60055;41.884;12.534;2024-01-11T13:19:38;10.30;;;6.25;;
33413;SDS011;60055;41.884;12.534;2024-01-11T13:22:04;11.60;;;6.43;;
33413;SDS011;60055;41.884;12.534;2024-01-11T13:24:29;10.60;;;6.05;;
33413;SDS011;60055;41.884;12.534;2024-01-11T13:26:55;11.93;;;6.88;;
33413;SDS011;60055;41.884;12.534;2024-01-11T13:29:20;11.32;;;6.82;;
33413;SDS011;60055;41.884;12.534;2024-01-11T13:31:46;14.90;;;8.55;;
33413;SDS011;60055;41.884;12.534;2024-01-11T13:34:11;11.32;;;7.78;;
33413;SDS011;60055;41.884;12.534;2024-01-11T13:36:36;14.30;;;7.18;;
33413;SDS011;60055;41.884;12.534;2024-01-11T13:39:02;10.40;;;6.88;;
33413;SDS011;60055;41.884;12.534;2024-01-11T13:41:28;11.80;;;7.80;;
33413;SDS011;60055;41.884;12.534;2024-01-11T13:43:53;14.75;;;7.78;;
33413;SDS011;60055;41.884;12.534;2024-01-11T13:46:19;11.60;;;7.60;;
33413;SDS011;60055;41.884;12.534;2024-01-11T13:48:45;11.50;;;7.38;;
33413;SDS011;60055;41.884;12.534;2024-01-11T13:51:12;15.93;;;7.35;;
33413;SDS011;60055;41.884;12.534;2024-01-11T13:53:39;14.80;;;7.78;;
33413;SDS011;60055;41.884;12.534;2024-01-11T13:56:04;13.02;;;7.43;;
33413;SDS011;60055;41.884;12.534;2024-01-11T13:58:31;15.45;;;8.85;;
33413;SDS011;60055;41.884;12.534;2024-01-11T14:00:56;13.32;;;8.68;;
33413;SDS011;60055;41.884;12.534;2024-01-11T14:03:22;12.55;;;8.32;;
33413;SDS011;60055;41.884;12.534;2024-01-11T14:05:47;13.23;;;7.93;;
33413;SDS011;60055;41.884;12.534;2024-01-11T14:08:13;13.05;;;8.18;;
33413;SDS011;60055;41.884;12.534;2024-01-11T14:10:38;18.08;;;8.50;;
33413;SDS011;60055;41.884;12.534;2024-01-11T14:13:03;13.32;;;8.38;;
33413;SDS011;60055;41.884;12.534;2024-01-11T14:15:29;14.35;;;8.57;;
33413;SDS011;60055;41.884;12.534;2024-01-11T14:17:56;11.10;;;7.50;;
33413;SDS011;60055;41.884;12.534;2024-01-11T14:20:21;14.27;;;7.47;;
33413;SDS011;60055;41.884;12.534;2024-01-11T14:22:47;16.70;;;7.40;;
33413;SDS011;60055;41.884;12.534;2024-01-11T14:25:15;10.98;;;7.53;;
33413;SDS011;60055;41.884;12.534;2024-01-11T14:27:41;18.83;;;8.68;;
33413;SDS011;60055;41.884;12.534;2024-01-11T14:30:07;12.40;;;8.18;;
33413;SDS011;60055;41.884;12.534;2024-01-11T14:32:34;15.45;;;7.53;;
33413;SDS011;60055;41.884;12.534;2024-01-11T14:35:00;14.50;;;7.68;;